sensor_id;sensor_type;location;lat;lon;timestamp;pressure;altitude;pressure_sealevel;temperature;humidity
3260;BME280;68938;48.150;14.004;2023-11-21T00:00:59;97548.81;;;9.33;65.04
3260;BME280;68938;48.150;14.004;2023-11-21T00:03:26;97552.34;;;9.30;65.29
3260;BME280;68938;48.150;14.004;2023-11-21T00:05:53;97549.03;;;9.27;65.79
3260;BME280;68938;48.150;14.004;2023-11-21T00:08:20;97546.31;;;9.31;65.92
3260;BME280;68938;48.150;14.004;2023-11-21T00:10:47;97551.47;;;9.30;65.86
3260;BME280;68938;48.150;14.004;2023-11-21T00:13:14;97558.22;;;9.32;66.13
3260;BME280;68938;48.150;14.004;2023-11-21T00:15:41;97553.94;;;9.33;65.98
3260;BME280;68938;48.150;14.004;2023-11-21T00:18:07;97549.53;;;9.36;65.75
3260;BME280;68938;48.150;14.004;2023-11-21T00:20:34;97551.91;;;9.42;65.67
3260;BME280;68938;48.150;14.004;2023-11-21T00:23:01;97549.22;;;9.45;65.69
3260;BME280;68938;48.150;14.004;2023-11-21T00:25:28;97548.28;;;9.48;65.43
3260;BME280;68938;48.150;14.004;2023-11-21T00:27:55;97538.06;;;9.48;65.59
3260;BME280;68938;48.150;14.004;2023-11-21T00:30:22;97536.31;;;9.48;65.22
3260;BME280;68938;48.150;14.004;2023-11-21T00:32:49;97541.53;;;9.47;65.88
3260;BME280;68938;48.150;14.004;2023-11-21T00:35:16;97537.25;;;9.46;65.53
3260;BME280;68938;48.150;14.004;2023-11-21T00:37:43;97550.22;;;9.41;65.68
3260;BME280;68938;48.150;14.004;2023-11-21T00:40:10;97551.06;;;9.42;65.88
3260;BME280;68938;48.150;14.004;2023-11-21T00:42:38;97557.09;;;9.41;65.31
3260;BME280;68938;48.150;14.004;2023-11-21T00:45:06;97560.88;;;9.29;65.78
3260;BME280;68938;48.150;14.004;2023-11-21T00:47:33;97553.19;;;9.29;65.63
3260;BME280;68938;48.150;14.004;2023-11-21T00:50:00;97560.88;;;9.29;65.43
3260;BME280;68938;48.150;14.004;2023-11-21T00:52:27;97561.88;;;9.25;65.51
3260;BME280;68938;48.150;14.004;2023-11-21T00:54:54;97567.06;;;9.23;65.04
3260;BME280;68938;48.150;14.004;2023-11-21T00:57:21;97561.94;;;9.23;65.32
3260;BME280;68938;48.150;14.004;2023-11-21T00:59:48;97558.53;;;9.23;64.96
3260;BME280;68938;48.150;14.004;2023-11-21T01:02:15;97573.03;;;9.22;64.94
3260;BME280;68938;48.150;14.004;2023-11-21T01:04:42;97573.09;;;9.21;64.99
3260;BME280;68938;48.150;14.004;2023-11-21T01:07:09;97569.81;;;9.17;64.91
3260;BME280;68938;48.150;14.004;2023-11-21T01:09:36;97575.03;;;9.14;64.95
3260;BME280;68938;48.150;14.004;2023-11-21T01:12:03;97568.28;;;9.12;65.29
3260;BME280;68938;48.150;14.004;2023-11-21T01:14:31;97560.78;;;9.07;65.32
3260;BME280;68938;48.150;14.004;2023-11-21T01:16:57;97557.38;;;9.07;65.49
3260;BME280;68938;48.150;14.004;2023-11-21T01:19:24;97556.50;;;9.08;65.34
3260;BME280;68938;48.150;14.004;2023-11-21T01:21:51;97553.94;;;9.08;65.52
3260;BME280;68938;48.150;14.004;2023-11-21T01:24:18;97547.06;;;9.10;65.71
3260;BME280;68938;48.150;14.004;2023-11-21T01:26:45;97547.09;;;9.08;65.99
3260;BME280;68938;48.150;14.004;2023-11-21T01:29:12;97549.63;;;9.10;65.49
3260;BME280;68938;48.150;14.004;2023-11-21T01:31:39;97542.78;;;9.10;65.70
3260;BME280;68938;48.150;14.004;2023-11-21T01:34:06;97547.91;;;9.09;65.52
3260;BME280;68938;48.150;14.004;2023-11-21T01:36:33;97548.03;;;9.06;65.42
3260;BME280;68938;48.150;14.004;2023-11-21T01:39:00;97542.19;;;9.02;65.26
3260;BME280;68938;48.150;14.004;2023-11-21T01:41:27;97547.34;;;9.00;65.31
3260;BME280;68938;48.150;14.004;2023-11-21T01:43:55;97548.38;;;8.95;65.17
3260;BME280;68938;48.150;14.004;2023-11-21T01:46:23;97545.78;;;8.96;65.18
3260;BME280;68938;48.150;14.004;2023-11-21T01:48:50;97554.31;;;8.95;65.13
3260;BME280;68938;48.150;14.004;2023-11-21T01:51:17;97549.38;;;8.91;65.00
3260;BME280;68938;48.150;14.004;2023-11-21T01:53:45;97559.69;;;8.88;65.30
3260;BME280;68938;48.150;14.004;2023-11-21T01:56:13;97556.38;;;8.86;65.06
3260;BME280;68938;48.150;14.004;2023-11-21T01:58:40;97551.44;;;8.80;65.27
3260;BME280;68938;48.150;14.004;2023-11-21T02:01:07;97553.19;;;8.79;65.61
3260;BME280;68938;48.150;14.004;2023-11-21T02:03:34;97562.78;;;8.71;65.58
3260;BME280;68938;48.150;14.004;2023-11-21T02:06:01;97566.19;;;8.71;65.47
3260;BME280;68938;48.150;14.004;2023-11-21T02:08:28;97567.41;;;8.60;65.67
3260;BME280;68938;48.150;14.004;2023-11-21T02:10:55;97571.69;;;8.59;66.07
3260;BME280;68938;48.150;14.004;2023-11-21T02:13:22;97568.34;;;8.57;65.88
3260;BME280;68938;48.150;14.004;2023-11-21T02:15:49;97560.91;;;8.49;66.67
3260;BME280;68938;48.150;14.004;2023-11-21T02:18:16;97564.22;;;8.53;66.41
3260;BME280;68938;48.150;14.004;2023-11-21T02:20:43;97559.09;;;8.53;66.38
3260;BME280;68938;48.150;14.004;2023-11-21T02:23:09;97563.41;;;8.51;67.17
3260;BME280;68938;48.150;14.004;2023-11-21T02:25:36;97559.19;;;8.50;67.19
3260;BME280;68938;48.150;14.004;2023-11-21T02:28:04;97565.09;;;8.52;67.22
3260;BME280;68938;48.150;14.004;2023-11-21T02:30:31;97562.47;;;8.55;67.37
3260;BME280;68938;48.150;14.004;2023-11-21T02:32:58;97563.31;;;8.54;67.60
3260;BME280;68938;48.150;14.004;2023-11-21T02:35:25;97561.56;;;8.56;67.40
3260;BME280;68938;48.150;14.004;2023-11-21T02:37:53;97564.06;;;8.58;67.87
3260;BME280;68938;48.150;14.004;2023-11-21T02:40:21;97569.13;;;8.59;68.19
3260;BME280;68938;48.150;14.004;2023-11-21T02:42:48;97562.38;;;8.58;68.65
3260;BME280;68938;48.150;14.004;2023-11-21T02:45:15;97560.66;;;8.59;68.24
3260;BME280;68938;48.150;14.004;2023-11-21T02:47:45;97562.88;;;8.68;68.05
3260;BME280;68938;48.150;14.004;2023-11-21T02:50:12;97556.81;;;8.72;68.17
3260;BME280;68938;48.150;14.004;2023-11-21T02:52:40;97551.53;;;8.76;68.58
3260;BME280;68938;48.150;14.004;2023-11-21T02:55:07;97553.94;;;8.81;68.16
3260;BME280;68938;48.150;14.004;2023-11-21T02:57:34;97545.19;;;8.88;68.88
3260;BME280;68938;48.150;14.004;2023-11-21T03:00:01;97551.03;;;8.92;68.83
3260;BME280;68938;48.150;14.004;2023-11-21T03:02:28;97547.56;;;8.94;68.66
3260;BME280;68938;48.150;14.004;2023-11-21T03:04:55;97547.34;;;9.00;68.47
3260;BME280;68938;48.150;14.004;2023-11-21T03:07:22;97537.78;;;9.06;68.16
3260;BME280;68938;48.150;14.004;2023-11-21T03:09:49;97529.97;;;9.10;68.10
3260;BME280;68938;48.150;14.004;2023-11-21T03:12:16;97530.72;;;9.14;67.73
3260;BME280;68938;48.150;14.004;2023-11-21T03:14:43;97528.06;;;9.17;68.37
3260;BME280;68938;48.150;14.004;2023-11-21T03:17:10;97528.78;;;9.20;68.10
3260;BME280;68938;48.150;14.004;2023-11-21T03:19:37;97528.63;;;9.25;68.30
3260;BME280;68938;48.150;14.004;2023-11-21T03:22:04;97524.19;;;9.30;68.04
3260;BME280;68938;48.150;14.004;2023-11-21T03:24:30;97519.78;;;9.34;68.19
3260;BME280;68938;48.150;14.004;2023-11-21T03:26:57;97511.13;;;9.38;68.06
3260;BME280;68938;48.150;14.004;2023-11-21T03:29:25;97516.13;;;9.41;67.73
3260;BME280;68938;48.150;14.004;2023-11-21T03:31:52;97519.44;;;9.43;67.98
3260;BME280;68938;48.150;14.004;2023-11-21T03:34:27;97509.22;;;9.43;67.81
3260;BME280;68938;48.150;14.004;2023-11-21T03:36:54;97510.19;;;9.40;67.95
3260;BME280;68938;48.150;14.004;2023-11-21T03:39:21;97507.47;;;9.43;67.78
3260;BME280;68938;48.150;14.004;2023-11-21T03:41:49;97510.94;;;9.42;67.82
3260;BME280;68938;48.150;14.004;2023-11-21T03:44:16;97514.19;;;9.47;68.03
3260;BME280;68938;48.150;14.004;2023-11-21T03:46:43;97514.91;;;9.51;68.04
3260;BME280;68938;48.150;14.004;2023-11-21T03:49:10;97517.50;;;9.49;67.99
3260;BME280;68938;48.150;14.004;2023-11-21T03:51:37;97522.50;;;9.54;68.08
3260;BME280;68938;48.150;14.004;2023-11-21T03:54:04;97521.59;;;9.55;68.48
3260;BME280;68938;48.150;14.004;2023-11-21T03:56:31;97517.13;;;9.60;68.25
3260;BME280;68938;48.150;14.004;2023-11-21T03:58:58;97519.69;;;9.60;68.22
3260;BME280;68938;48.150;14.004;2023-11-21T04:01:25;97518.72;;;9.64;68.04
3260;BME280;68938;48.150;14.004;2023-11-21T04:03:52;97515.19;;;9.67;68.21
3260;BME280;68938;48.150;14.004;2023-11-21T04:06:19;97514.34;;;9.66;67.90
3260;BME280;68938;48.150;14.004;2023-11-21T04:08:46;97521.25;;;9.64;68.32
3260;BME280;68938;48.150;14.004;2023-11-21T04:11:13;97511.78;;;9.66;68.25
3260;BME280;68938;48.150;14.004;2023-11-21T04:13:40;97514.19;;;9.71;68.18
3260;BME280;68938;48.150;14.004;2023-11-21T04:16:08;97510.66;;;9.73;68.17
3260;BME280;68938;48.150;14.004;2023-11-21T04:18:36;97503.78;;;9.76;68.05
3260;BME280;68938;48.150;14.004;2023-11-21T04:21:05;97506.38;;;9.74;68.11
3260;BME280;68938;48.150;14.004;2023-11-21T04:23:32;97510.75;;;9.72;68.07
3260;BME280;68938;48.150;14.004;2023-11-21T04:26:00;97509.06;;;9.71;68.16
3260;BME280;68938;48.150;14.004;2023-11-21T04:28:27;97510.66;;;9.73;68.31
3260;BME280;68938;48.150;14.004;2023-11-21T04:30:55;97516.50;;;9.77;68.06
3260;BME280;68938;48.150;14.004;2023-11-21T04:33:21;97520.75;;;9.78;68.07
3260;BME280;68938;48.150;14.004;2023-11-21T04:35:48;97512.22;;;9.78;68.15
3260;BME280;68938;48.150;14.004;2023-11-21T04:38:15;97518.13;;;9.80;67.93
3260;BME280;68938;48.150;14.004;2023-11-21T04:40:42;97511.34;;;9.79;67.75
3260;BME280;68938;48.150;14.004;2023-11-21T04:43:09;97520.69;;;9.80;67.91
3260;BME280;68938;48.150;14.004;2023-11-21T04:45:37;97524.06;;;9.82;67.75
3260;BME280;68938;48.150;14.004;2023-11-21T04:48:04;97524.16;;;9.79;67.72
3260;BME280;68938;48.150;14.004;2023-11-21T04:50:31;97535.66;;;9.67;67.98
3260;BME280;68938;48.150;14.004;2023-11-21T04:52:58;97521.19;;;9.66;68.46
3260;BME280;68938;48.150;14.004;2023-11-21T04:55:25;97526.25;;;9.67;67.75
3260;BME280;68938;48.150;14.004;2023-11-21T04:57:52;97524.44;;;9.71;67.87
3260;BME280;68938;48.150;14.004;2023-11-21T05:00:19;97539.00;;;9.69;68.05
3260;BME280;68938;48.150;14.004;2023-11-21T05:02:46;97531.25;;;9.70;67.92
3260;BME280;68938;48.150;14.004;2023-11-21T05:05:13;97532.38;;;9.63;68.28
3260;BME280;68938;48.150;14.004;2023-11-21T05:07:40;97535.66;;;9.67;67.95
3260;BME280;68938;48.150;14.004;2023-11-21T05:10:07;97532.28;;;9.66;67.90
3260;BME280;68938;48.150;14.004;2023-11-21T05:12:34;97530.66;;;9.64;68.45
3260;BME280;68938;48.150;14.004;2023-11-21T05:15:01;97527.16;;;9.66;68.47
3260;BME280;68938;48.150;14.004;2023-11-21T05:17:30;97535.56;;;9.70;68.20
3260;BME280;68938;48.150;14.004;2023-11-21T05:19:57;97533.78;;;9.72;68.28
3260;BME280;68938;48.150;14.004;2023-11-21T05:22:24;97532.00;;;9.74;67.89
3260;BME280;68938;48.150;14.004;2023-11-21T05:24:51;97529.38;;;9.76;68.11
3260;BME280;68938;48.150;14.004;2023-11-21T05:27:18;97523.25;;;9.80;67.89
3260;BME280;68938;48.150;14.004;2023-11-21T05:29:45;97530.91;;;9.81;68.16
3260;BME280;68938;48.150;14.004;2023-11-21T05:32:12;97532.38;;;9.87;67.40
3260;BME280;68938;48.150;14.004;2023-11-21T05:34:39;97537.56;;;9.85;68.33
3260;BME280;68938;48.150;14.004;2023-11-21T05:37:06;97532.38;;;9.87;69.04
3260;BME280;68938;48.150;14.004;2023-11-21T05:39:32;97532.28;;;9.90;69.22
3260;BME280;68938;48.150;14.004;2023-11-21T05:41:59;97535.38;;;9.98;69.39
3260;BME280;68938;48.150;14.004;2023-11-21T05:44:26;97536.06;;;10.03;68.95
3260;BME280;68938;48.150;14.004;2023-11-21T05:46:53;97533.38;;;10.06;69.42
3260;BME280;68938;48.150;14.004;2023-11-21T05:49:20;97539.25;;;10.08;69.29
3260;BME280;68938;48.150;14.004;2023-11-21T05:51:47;97555.44;;;10.10;69.45
3260;BME280;68938;48.150;14.004;2023-11-21T05:54:14;97552.69;;;10.15;69.65
3260;BME280;68938;48.150;14.004;2023-11-21T05:56:41;97543.16;;;10.18;69.92
3260;BME280;68938;48.150;14.004;2023-11-21T05:59:08;97544.66;;;10.24;69.78
3260;BME280;68938;48.150;14.004;2023-11-21T06:01:35;97548.88;;;10.27;69.69
3260;BME280;68938;48.150;14.004;2023-11-21T06:04:02;97557.19;;;10.32;69.95
3260;BME280;68938;48.150;14.004;2023-11-21T06:06:29;97552.78;;;10.35;70.00
3260;BME280;68938;48.150;14.004;2023-11-21T06:08:56;97560.31;;;10.40;69.95
3260;BME280;68938;48.150;14.004;2023-11-21T06:11:22;97553.34;;;10.43;70.05
3260;BME280;68938;48.150;14.004;2023-11-21T06:13:50;97564.31;;;10.47;69.83
3260;BME280;68938;48.150;14.004;2023-11-21T06:16:16;97559.91;;;10.51;69.47
3260;BME280;68938;48.150;14.004;2023-11-21T06:18:44;97559.06;;;10.50;69.67
3260;BME280;68938;48.150;14.004;2023-11-21T06:21:12;97568.19;;;10.57;69.47
3260;BME280;68938;48.150;14.004;2023-11-21T06:23:39;97565.50;;;10.60;69.48
3260;BME280;68938;48.150;14.004;2023-11-21T06:26:06;97570.53;;;10.63;69.00
3260;BME280;68938;48.150;14.004;2023-11-21T06:28:33;97568.72;;;10.65;69.75
3260;BME280;68938;48.150;14.004;2023-11-21T06:31:00;97571.16;;;10.68;69.55
3260;BME280;68938;48.150;14.004;2023-11-21T06:33:26;97566.81;;;10.71;69.55
3260;BME280;68938;48.150;14.004;2023-11-21T06:35:53;97571.25;;;10.67;69.84
3260;BME280;68938;48.150;14.004;2023-11-21T06:38:20;97566.75;;;10.72;69.70
3260;BME280;68938;48.150;14.004;2023-11-21T06:40:47;97569.25;;;10.74;69.93
3260;BME280;68938;48.150;14.004;2023-11-21T06:43:14;97570.03;;;10.76;69.72
3260;BME280;68938;48.150;14.004;2023-11-21T06:45:41;97576.56;;;10.83;69.62
3260;BME280;68938;48.150;14.004;2023-11-21T06:48:08;97576.41;;;10.87;69.40
3260;BME280;68938;48.150;14.004;2023-11-21T06:50:35;97580.41;;;10.95;69.62
3260;BME280;68938;48.150;14.004;2023-11-21T06:53:02;97584.44;;;11.00;69.45
3260;BME280;68938;48.150;14.004;2023-11-21T06:55:29;97579.97;;;11.05;69.35
3260;BME280;68938;48.150;14.004;2023-11-21T06:57:56;97578.94;;;11.09;69.41
3260;BME280;68938;48.150;14.004;2023-11-21T07:00:23;97582.16;;;11.14;69.13
3260;BME280;68938;48.150;14.004;2023-11-21T07:02:50;97578.59;;;11.17;68.91
3260;BME280;68938;48.150;14.004;2023-11-21T07:05:17;97586.19;;;11.20;68.87
3260;BME280;68938;48.150;14.004;2023-11-21T07:07:44;97580.22;;;11.20;69.03
3260;BME280;68938;48.150;14.004;2023-11-21T07:10:11;97586.84;;;11.25;68.92
3260;BME280;68938;48.150;14.004;2023-11-21T07:12:38;97596.84;;;11.31;68.98
3260;BME280;68938;48.150;14.004;2023-11-21T07:15:06;97597.69;;;11.32;69.00
3260;BME280;68938;48.150;14.004;2023-11-21T07:17:33;97605.19;;;11.36;68.71
3260;BME280;68938;48.150;14.004;2023-11-21T07:20:03;97603.78;;;11.29;69.12
3260;BME280;68938;48.150;14.004;2023-11-21T07:22:30;97603.69;;;11.31;69.25
3260;BME280;68938;48.150;14.004;2023-11-21T07:24:57;97602.94;;;11.29;68.97
3260;BME280;68938;48.150;14.004;2023-11-21T07:27:24;97599.41;;;11.31;69.25
3260;BME280;68938;48.150;14.004;2023-11-21T07:29:51;97606.97;;;11.34;69.41
3260;BME280;68938;48.150;14.004;2023-11-21T07:32:18;97599.41;;;11.31;69.35
3260;BME280;68938;48.150;14.004;2023-11-21T07:34:45;97616.53;;;11.31;69.41
3260;BME280;68938;48.150;14.004;2023-11-21T07:37:12;97612.94;;;11.35;69.32
3260;BME280;68938;48.150;14.004;2023-11-21T07:39:39;97611.25;;;11.35;69.51
3260;BME280;68938;48.150;14.004;2023-11-21T07:42:06;97619.69;;;11.37;69.58
3260;BME280;68938;48.150;14.004;2023-11-21T07:44:32;97617.97;;;11.38;69.57
3260;BME280;68938;48.150;14.004;2023-11-21T07:46:59;97616.97;;;11.42;69.64
3260;BME280;68938;48.150;14.004;2023-11-21T07:49:26;97616.75;;;11.47;69.50
3260;BME280;68938;48.150;14.004;2023-11-21T07:51:53;97617.38;;;11.52;69.33
3260;BME280;68938;48.150;14.004;2023-11-21T07:54:20;97616.50;;;11.53;69.33
3260;BME280;68938;48.150;14.004;2023-11-21T07:56:47;97621.75;;;11.50;68.93
3260;BME280;68938;48.150;14.004;2023-11-21T07:59:14;97621.56;;;11.34;69.06
3260;BME280;68938;48.150;14.004;2023-11-21T08:01:41;97614.31;;;11.44;68.93
3260;BME280;68938;48.150;14.004;2023-11-21T08:04:08;97620.47;;;11.39;69.05
3260;BME280;68938;48.150;14.004;2023-11-21T08:06:35;97614.19;;;11.47;69.21
3260;BME280;68938;48.150;14.004;2023-11-21T08:09:02;97618.81;;;11.59;69.05
3260;BME280;68938;48.150;14.004;2023-11-21T08:11:29;97617.00;;;11.61;68.82
3260;BME280;68938;48.150;14.004;2023-11-21T08:13:56;97619.81;;;11.55;68.91
3260;BME280;68938;48.150;14.004;2023-11-21T08:16:23;97609.03;;;11.67;69.11
3260;BME280;68938;48.150;14.004;2023-11-21T08:18:50;97613.09;;;11.73;68.62
3260;BME280;68938;48.150;14.004;2023-11-21T08:21:17;97606.84;;;11.78;68.63
3260;BME280;68938;48.150;14.004;2023-11-21T08:23:44;97607.09;;;11.72;68.33
3260;BME280;68938;48.150;14.004;2023-11-21T08:26:11;97609.47;;;11.77;68.67
3260;BME280;68938;48.150;14.004;2023-11-21T08:28:38;97600.50;;;11.87;67.59
3260;BME280;68938;48.150;14.004;2023-11-21T08:31:05;97612.94;;;11.96;67.90
3260;BME280;68938;48.150;14.004;2023-11-21T08:33:32;97614.66;;;11.96;68.17
3260;BME280;68938;48.150;14.004;2023-11-21T08:35:59;97616.19;;;12.00;67.75
3260;BME280;68938;48.150;14.004;2023-11-21T08:38:26;97616.44;;;12.14;68.05
3260;BME280;68938;48.150;14.004;2023-11-21T08:40:53;97620.31;;;12.23;67.91
3260;BME280;68938;48.150;14.004;2023-11-21T08:43:20;97618.72;;;12.20;67.36
3260;BME280;68938;48.150;14.004;2023-11-21T08:45:47;97607.03;;;12.13;68.11
3260;BME280;68938;48.150;14.004;2023-11-21T08:48:14;97612.13;;;12.15;67.98
3260;BME280;68938;48.150;14.004;2023-11-21T08:50:40;97612.84;;;12.18;68.43
3260;BME280;68938;48.150;14.004;2023-11-21T08:53:07;97617.41;;;12.12;68.58
3260;BME280;68938;48.150;14.004;2023-11-21T08:55:34;97612.31;;;11.91;69.00
3260;BME280;68938;48.150;14.004;2023-11-21T08:58:01;97621.16;;;12.23;68.79
3260;BME280;68938;48.150;14.004;2023-11-21T09:00:28;97620.22;;;12.45;68.20
3260;BME280;68938;48.150;14.004;2023-11-21T09:02:55;97616.59;;;12.49;67.86
3260;BME280;68938;48.150;14.004;2023-11-21T09:05:22;97622.97;;;12.59;67.30
3260;BME280;68938;48.150;14.004;2023-11-21T09:07:49;97617.38;;;12.68;67.42
3260;BME280;68938;48.150;14.004;2023-11-21T09:10:16;97616.31;;;12.55;67.92
3260;BME280;68938;48.150;14.004;2023-11-21T09:12:42;97613.84;;;12.71;66.97
3260;BME280;68938;48.150;14.004;2023-11-21T09:15:10;97610.31;;;12.36;67.38
3260;BME280;68938;48.150;14.004;2023-11-21T09:17:37;97621.72;;;12.11;68.02
3260;BME280;68938;48.150;14.004;2023-11-21T09:20:04;97615.06;;;12.26;68.33
3260;BME280;68938;48.150;14.004;2023-11-21T09:22:32;97621.81;;;12.28;68.33
3260;BME280;68938;48.150;14.004;2023-11-21T09:25:00;97622.34;;;12.35;67.45
3260;BME280;68938;48.150;14.004;2023-11-21T09:27:27;97624.31;;;12.49;66.63
3260;BME280;68938;48.150;14.004;2023-11-21T09:29:53;97636.25;;;12.31;67.67
3260;BME280;68938;48.150;14.004;2023-11-21T09:32:21;97628.66;;;12.47;67.27
3260;BME280;68938;48.150;14.004;2023-11-21T09:34:51;97630.78;;;12.39;66.95
3260;BME280;68938;48.150;14.004;2023-11-21T09:37:18;97629.28;;;12.71;66.31
3260;BME280;68938;48.150;14.004;2023-11-21T09:39:45;97630.66;;;12.78;66.50
3260;BME280;68938;48.150;14.004;2023-11-21T09:42:15;97631.47;;;12.78;65.62
3260;BME280;68938;48.150;14.004;2023-11-21T09:47:42;97634.91;;;12.79;65.10
3260;BME280;68938;48.150;14.004;2023-11-21T09:50:09;97641.22;;;12.91;65.20
3260;BME280;68938;48.150;14.004;2023-11-21T09:52:49;97633.63;;;12.88;64.53
3260;BME280;68938;48.150;14.004;2023-11-21T09:55:38;97630.38;;;12.84;65.00
3260;BME280;68938;48.150;14.004;2023-11-21T09:58:09;97634.03;;;12.97;64.64
3260;BME280;68938;48.150;14.004;2023-11-21T10:00:40;97626.97;;;12.84;65.28
3260;BME280;68938;48.150;14.004;2023-11-21T10:03:11;97628.78;;;12.99;65.34
3260;BME280;68938;48.150;14.004;2023-11-21T10:05:39;97622.00;;;13.15;64.66
3260;BME280;68938;48.150;14.004;2023-11-21T10:08:10;97623.47;;;13.21;64.15
3260;BME280;68938;48.150;14.004;2023-11-21T10:10:45;97618.31;;;13.21;63.40
3260;BME280;68938;48.150;14.004;2023-11-21T10:13:13;97615.09;;;13.35;62.64
3260;BME280;68938;48.150;14.004;2023-11-21T10:15:41;97617.91;;;13.30;62.91
3260;BME280;68938;48.150;14.004;2023-11-21T10:18:08;97613.50;;;13.32;61.57
3260;BME280;68938;48.150;14.004;2023-11-21T10:20:35;97617.31;;;13.06;61.67
3260;BME280;68938;48.150;14.004;2023-11-21T10:23:02;97622.31;;;13.09;61.89
3260;BME280;68938;48.150;14.004;2023-11-21T10:25:30;97616.25;;;13.10;62.11
3260;BME280;68938;48.150;14.004;2023-11-21T10:27:59;97619.28;;;13.18;61.97
3260;BME280;68938;48.150;14.004;2023-11-21T10:30:32;97629.19;;;13.27;62.17
3260;BME280;68938;48.150;14.004;2023-11-21T10:33:04;97630.41;;;13.19;62.74
3260;BME280;68938;48.150;14.004;2023-11-21T10:35:45;97624.38;;;13.20;63.17
3260;BME280;68938;48.150;14.004;2023-11-21T10:38:15;97628.75;;;13.18;63.91
3260;BME280;68938;48.150;14.004;2023-11-21T10:40:42;97631.34;;;13.18;64.51
3260;BME280;68938;48.150;14.004;2023-11-21T10:43:10;97632.25;;;13.17;64.79
3260;BME280;68938;48.150;14.004;2023-11-21T10:45:37;97635.84;;;13.13;65.87
3260;BME280;68938;48.150;14.004;2023-11-21T10:48:08;97633.06;;;13.00;66.28
3260;BME280;68938;48.150;14.004;2023-11-21T10:50:37;97626.16;;;13.00;66.25
3260;BME280;68938;48.150;14.004;2023-11-21T10:53:04;97633.88;;;13.00;66.57
3260;BME280;68938;48.150;14.004;2023-11-21T10:55:33;97631.31;;;13.00;66.90
3260;BME280;68938;48.150;14.004;2023-11-21T10:58:02;97630.34;;;13.03;66.93
3260;BME280;68938;48.150;14.004;2023-11-21T11:00:30;97626.84;;;13.04;66.89
3260;BME280;68938;48.150;14.004;2023-11-21T11:02:59;97634.13;;;12.96;67.22
3260;BME280;68938;48.150;14.004;2023-11-21T11:05:27;97622.22;;;12.93;66.88
3260;BME280;68938;48.150;14.004;2023-11-21T11:08:05;97628.34;;;12.91;67.21
3260;BME280;68938;48.150;14.004;2023-11-21T11:10:32;97637.19;;;12.85;67.47
3260;BME280;68938;48.150;14.004;2023-11-21T11:12:59;97631.19;;;12.85;67.40
3260;BME280;68938;48.150;14.004;2023-11-21T11:15:27;97632.19;;;12.82;67.50
3260;BME280;68938;48.150;14.004;2023-11-21T11:17:55;97627.09;;;12.80;67.78
3260;BME280;68938;48.150;14.004;2023-11-21T11:20:23;97632.19;;;12.82;67.54
3260;BME280;68938;48.150;14.004;2023-11-21T11:28:17;97632.22;;;12.44;68.21
3260;BME280;68938;48.150;14.004;2023-11-21T11:31:18;97627.16;;;12.43;68.53
3260;BME280;68938;48.150;14.004;2023-11-21T11:34:01;97629.50;;;12.28;68.89
3260;BME280;68938;48.150;14.004;2023-11-21T11:37:07;97629.50;;;12.28;69.08
3260;BME280;68938;48.150;14.004;2023-11-21T11:39:39;97622.75;;;12.26;69.81
3260;BME280;68938;48.150;14.004;2023-11-21T11:42:17;97622.63;;;12.29;69.25
3260;BME280;68938;48.150;14.004;2023-11-21T11:47:31;97631.19;;;12.29;69.11
3260;BME280;68938;48.150;14.004;2023-11-21T11:50:12;97629.44;;;12.30;69.44
3260;BME280;68938;48.150;14.004;2023-11-21T11:52:45;97626.44;;;12.39;69.21
3260;BME280;68938;48.150;14.004;2023-11-21T11:55:14;97626.03;;;12.48;69.16
3260;BME280;68938;48.150;14.004;2023-11-21T11:57:43;97628.16;;;12.57;69.38
3260;BME280;68938;48.150;14.004;2023-11-21T12:00:18;97628.66;;;12.66;69.10
3260;BME280;68938;48.150;14.004;2023-11-21T12:02:53;97633.44;;;12.73;69.21
3260;BME280;68938;48.150;14.004;2023-11-21T12:05:22;97633.69;;;12.69;69.26
3260;BME280;68938;48.150;14.004;2023-11-21T12:07:52;97631.94;;;12.50;69.24
3260;BME280;68938;48.150;14.004;2023-11-21T12:10:22;97617.06;;;12.57;69.19
3260;BME280;68938;48.150;14.004;2023-11-21T12:12:52;97622.00;;;12.62;69.44
3260;BME280;68938;48.150;14.004;2023-11-21T12:15:21;97621.03;;;12.45;68.68
3260;BME280;68938;48.150;14.004;2023-11-21T12:17:52;97620.34;;;12.42;67.35
3260;BME280;68938;48.150;14.004;2023-11-21T12:20:21;97619.16;;;12.49;67.35
3260;BME280;68938;48.150;14.004;2023-11-21T12:22:50;97622.69;;;12.46;67.69
3260;BME280;68938;48.150;14.004;2023-11-21T12:25:23;97618.88;;;12.55;68.11
3260;BME280;68938;48.150;14.004;2023-11-21T12:27:52;97625.75;;;12.36;67.90
3260;BME280;68938;48.150;14.004;2023-11-21T12:30:21;97620.75;;;12.51;67.90
3260;BME280;68938;48.150;14.004;2023-11-21T12:32:51;97617.81;;;12.59;66.48
3260;BME280;68938;48.150;14.004;2023-11-21T12:35:21;97614.59;;;12.73;66.91
3260;BME280;68938;48.150;14.004;2023-11-21T12:37:51;97613.47;;;12.78;66.63
3260;BME280;68938;48.150;14.004;2023-11-21T12:40:18;97618.78;;;12.75;66.56
3260;BME280;68938;48.150;14.004;2023-11-21T12:42:46;97613.28;;;12.64;66.51
3260;BME280;68938;48.150;14.004;2023-11-21T12:45:23;97624.13;;;12.71;66.62
3260;BME280;68938;48.150;14.004;2023-11-21T12:47:54;97622.09;;;12.77;66.13
3260;BME280;68938;48.150;14.004;2023-11-21T12:50:22;97621.59;;;12.88;66.19
3260;BME280;68938;48.150;14.004;2023-11-21T12:52:51;97617.66;;;12.98;65.89
3260;BME280;68938;48.150;14.004;2023-11-21T12:55:20;97610.94;;;12.96;65.35
3260;BME280;68938;48.150;14.004;2023-11-21T12:57:49;97610.56;;;13.03;65.01
3260;BME280;68938;48.150;14.004;2023-11-21T13:00:18;97616.25;;;13.10;65.23
3260;BME280;68938;48.150;14.004;2023-11-21T13:02:47;97614.66;;;13.08;65.07
3260;BME280;68938;48.150;14.004;2023-11-21T13:05:13;97614.91;;;13.03;64.34
3260;BME280;68938;48.150;14.004;2023-11-21T13:07:50;97610.88;;;12.78;64.57
3260;BME280;68938;48.150;14.004;2023-11-21T13:10:17;97606.28;;;12.85;63.99
3260;BME280;68938;48.150;14.004;2023-11-21T13:12:45;97609.63;;;12.87;63.76
3260;BME280;68938;48.150;14.004;2023-11-21T13:15:14;97615.19;;;12.97;63.90
3260;BME280;68938;48.150;14.004;2023-11-21T13:17:41;97605.63;;;12.99;64.73
3260;BME280;68938;48.150;14.004;2023-11-21T13:20:08;97611.16;;;13.09;63.93